Flight Track Log - Related Links

Times and Time Zones

All times are in EDT time to prevent confusion due to time zone crossing. See the CTL18 flight status page for this flight to view local times or setup timezone preferences in your user account.

Time Position Orientation Groundspeed Altitude Reporting Facility
EDT Latitude Longitude Course Direction KTS MPH feet Rate Location/Type
Mon 07:46:45 PM 43.3592 -84.0136 157° South 140 161 5,100  Level FAA TRACON SMA TRACON (SMA)
Mon 07:47:00 PM 43.3904 -84.0180 160° South  Level Estimated
Mon 07:47:05 PM 43.3442 -84.0061 160° South 145 167 5,200  Level FAA TRACON SMA TRACON (SMA)
Mon 07:47:25 PM 43.3325 -83.9992 157° South 149 171 5,100 -300 Descending FAA TRACON SMA TRACON (SMA)
Mon 07:47:45 PM 43.3206 -83.9919 156° South 150 173 5,000 -150 Descending FAA TRACON SMA TRACON (SMA)
Mon 07:48:00 PM 43.3637 -83.9994 153° Southeast  Level FlightAware Approximate
Mon 07:48:05 PM 43.3050 -83.9836 159° South 153 176 5,000  Level FAA TRACON SMA TRACON (SMA)
Mon 07:48:25 PM 43.2922 -83.9775 161° South 154 177 5,000  Level FAA TRACON SMA TRACON (SMA)
Mon 07:48:45 PM 43.2792 -83.9722 164° South 157 181 5,000  Level FAA TRACON SMA TRACON (SMA)
Mon 07:49:00 PM 43.3371 -83.9809 153° Southeast  Level FlightAware Approximate
Mon 07:49:05 PM 43.2636 -83.9653 162° South 155 178 5,000  Level FAA TRACON SMA TRACON (SMA)
Mon 07:49:25 PM 43.2511 -83.9583 158° South 156 180 5,000  Level FAA TRACON SMA TRACON (SMA)
Mon 07:49:45 PM 43.2389 -83.9511 157° South 155 178 5,000  Level FAA TRACON SMA TRACON (SMA)
Mon 07:50:00 PM 43.3085 -83.9689 160° South  Level Estimated
Mon 07:50:05 PM 43.2236 -83.9431 159° South 154 177 5,000  Level FAA TRACON SMA TRACON (SMA)
Mon 07:50:25 PM 43.2125 -83.9372 159° South 153 176 5,000 150 Level FAA TRACON SMA TRACON (SMA)
Mon 07:50:45 PM 43.1989 -83.9314 163° South 153 176 5,100  Climbing FAA TRACON SMA TRACON (SMA)
Mon 07:51:00 PM 43.2809 -83.9532 157° South  Level FlightAware Approximate
Mon 07:51:05 PM 43.1836 -83.9233 159° South 152 175 5,000  Level FAA TRACON SMA TRACON (SMA)
Mon 07:51:25 PM 43.1733 -83.9194 165° South 153 176 5,000  Level FAA TRACON SMA TRACON (SMA)
Mon 07:51:45 PM 43.1597 -83.9078 148° Southeast 154 177 5,000  Level FAA TRACON SMA TRACON (SMA)
Mon 07:52:00 PM 43.2533 -83.9375 157° South  Level FlightAware Approximate
Mon 07:52:05 PM 43.1444 -83.8992 158° South 154 177 5,000  Level FAA TRACON SMA TRACON (SMA)
Mon 07:52:25 PM 43.1317 -83.8958 169° South 153 176 5,000  Level FAA TRACON SMA TRACON (SMA)
Mon 07:52:46 PM 43.1169 -83.8875 158° South 150 173 5,000 150 Level FAA TRACON SMA TRACON (SMA)
Mon 07:53:05 PM 43.1044 -83.8814 160° South 152 175 5,100 154 Climbing FAA TRACON SMA TRACON (SMA)
Mon 07:53:25 PM 43.0936 -83.8769 163° South 151 174 5,100 -150 Level FAA TRACON SMA TRACON (SMA)
Mon 07:53:45 PM 43.0775 -83.8669 156° South 151 174 5,000  Descending FAA TRACON SMA TRACON (SMA)
Mon 07:54:05 PM 43.0656 -83.8597 156° South 152 175 5,100 146 Climbing FAA TRACON SMA TRACON (SMA)
Mon 07:54:26 PM 43.0539 -83.8517 153° Southeast 153 176 5,100  Level FAA TRACON SMA TRACON (SMA)
Mon 07:54:45 PM 43.0378 -83.8453 164° South 154 177 5,100 -154 Level FAA TRACON SMA TRACON (SMA)
Mon 07:55:05 PM 43.0250 -83.8397 162° South 154 177 5,000 -146 Descending FAA TRACON SMA TRACON (SMA)
Mon 07:55:26 PM 43.0144 -83.8339 158° South 154 177 5,000  Level FAA TRACON SMA TRACON (SMA)
Mon 07:55:45 PM 43.0006 -83.8253 156° South 155 178 5,000  Level FAA TRACON SMA TRACON (SMA)
Mon 07:56:06 PM 42.9856 -83.8158 155° Southeast 154 177 5,000  Level FAA TRACON SMA TRACON (SMA)
Mon 07:56:27 PM 42.9739 -83.8106 162° South 154 177 5,000  Level FAA TRACON SMA TRACON (SMA)
Mon 07:56:46 PM 42.9581 -83.8011 156° South 153 176 5,000  Level FAA TRACON SMA TRACON (SMA)
Mon 07:57:05 PM 42.9458 -83.7944 158° South 154 177 5,000  Level FAA TRACON SMA TRACON (SMA)
Mon 07:57:26 PM 42.9350 -83.7897 162° South 154 177 5,000  Level FAA TRACON SMA TRACON (SMA)
Mon 07:57:46 PM 42.9183 -83.7786 154° Southeast 154 177 5,000  Level FAA TRACON SMA TRACON (SMA)
Mon 07:58:06 PM 42.9064 -83.7717 157° South 152 175 5,000  Level FAA TRACON SMA TRACON (SMA)
Mon 07:58:26 PM 42.8944 -83.7675 166° South 153 176 5,000  Level FAA TRACON SMA TRACON (SMA)
Mon 07:58:45 PM 42.8783 -83.7572 155° Southeast 155 178 5,000  Level FAA TRACON SMA TRACON (SMA)
Mon 07:59:06 PM 42.8661 -83.7503 157° South 155 178 5,000  Level FAA TRACON SMA TRACON (SMA)
Mon 07:59:23 PM 42.8544 -83.7439 158° South 157 181 5,000  Level Cleveland Center
Mon 08:00:30 PM 42.8089 -83.7333 170° South 151 174 5,000  Level Cleveland Center
Mon 08:01:31 PM 42.7656 -83.7197 167° South 151 174 5,000  Level Cleveland Center
Mon 08:02:32 PM 42.7242 -83.7036 164° South 150 173 5,000  Level Cleveland Center
Mon 08:03:33 PM 42.6831 -83.6903 167° South 150 173 5,000 -246 Level Cleveland Center
Mon 08:04:34 PM 42.6436 -83.6769 166° South 155 178 4,500 -375 Descending Cleveland Center
Mon 08:05:41 PM 42.5919 -83.6603 167° South 163 188 4,200 -246 Descending Cleveland Center
Mon 08:06:36 PM 42.5592 -83.6475 164° South 145 167 4,000 -98 Descending Cleveland Center
Mon 08:07:43 PM 42.5156 -83.6311 165° South 136 157 4,000 -49 Level Cleveland Center
Mon 08:08:38 PM 42.4806 -83.6183 165° South 142 163 3,900 -259 Descending Cleveland Center
Mon 08:09:39 PM 42.4436 -83.5994 159° South 148 170 3,500 -397 Descending Cleveland Center
Mon 08:10:39 PM 42.4022 -83.5808 162° South 149 171 3,100 -333 Descending Cleveland Center
Mon 08:11:27 PM 42.3728 -83.5619 155° Southeast 147 169 2,900 -269 Descending FAA TRACON SMA TRACON (SMA)
Mon 08:11:46 PM 42.3611 -83.5567 162° South 145 167 2,800 -308 Descending FAA TRACON SMA TRACON (SMA)
Mon 08:12:06 PM 42.3494 -83.5519 163° South 143 165 2,700 -300 Descending FAA TRACON SMA TRACON (SMA)
Mon 08:12:26 PM 42.3347 -83.5450 161° South 145 167 2,600 -450 Descending FAA TRACON SMA TRACON (SMA)
Mon 08:12:46 PM 42.3228 -83.5392 160° South 146 168 2,400 -450 Descending FAA TRACON SMA TRACON (SMA)
Mon 08:13:06 PM 42.3108 -83.5336 161° South 147 169 2,300 -450 Descending FAA TRACON SMA TRACON (SMA)
Mon 08:13:26 PM 42.2964 -83.5264 160° South 144 166 2,100 -585 Descending FAA TRACON SMA TRACON (SMA)
Mon 08:13:47 PM 42.2850 -83.5211 161° South 142 163 1,900 -878 Descending FAA TRACON SMA TRACON (SMA)
Mon 08:14:07 PM 42.2703 -83.5153 164° South 143 165 1,500 -900 Descending FAA TRACON SMA TRACON (SMA)
Mon 08:14:27 PM 42.2592 -83.5128 171° South 123 142 1,300 -750 Descending FAA TRACON SMA TRACON (SMA)
Mon 08:14:47 PM 42.2486 -83.5172 197° South 98 113 1,000 -750 Descending FAA TRACON SMA TRACON (SMA)
Mon 08:15:07 PM 42.2469 -83.5194 225° Southwest 119 137 800 -300 Descending FAA TRACON SMA TRACON (SMA)
Mon 08:15:27 PM 42.2469 -83.5194 323° Northwest 119 137 800  Level FAA TRACON SMA TRACON (SMA)
Mon 08:17:00 PM 42.2333 -83.5167 North  Level FlightAware Approximate
Mon 08:24:00 PM 42.2393 -83.5310 North  Level Estimated

Login

Don't have an account? Register now (free) for customized features, flight alerts, and more!